sensor_id;sensor_type;location;lat;lon;timestamp;P1;durP1;ratioP1;P2;durP2;ratioP2
78181;SDS011;67441;50.116;8.696;2023-06-22T00:00:07;7.03;;;5.25;;
78181;SDS011;67441;50.116;8.696;2023-06-22T00:00:36;6.30;;;4.90;;
78181;SDS011;67441;50.116;8.696;2023-06-22T00:01:27;9.10;;;5.30;;
78181;SDS011;67441;50.116;8.696;2023-06-22T00:02:18;6.53;;;5.43;;
78181;SDS011;67441;50.116;8.696;2023-06-22T00:03:09;6.85;;;4.60;;
78181;SDS011;67441;50.116;8.696;2023-06-22T00:03:59;6.55;;;5.40;;
78181;SDS011;67441;50.116;8.696;2023-06-22T00:04:50;5.85;;;5.03;;
78181;SDS011;67441;50.116;8.696;2023-06-22T00:05:40;5.97;;;5.35;;
78181;SDS011;67441;50.116;8.696;2023-06-22T00:06:31;5.97;;;5.15;;
78181;SDS011;67441;50.116;8.696;2023-06-22T00:07:21;6.43;;;5.03;;
78181;SDS011;67441;50.116;8.696;2023-06-22T00:08:12;6.90;;;5.20;;
78181;SDS011;67441;50.116;8.696;2023-06-22T00:08:37;6.57;;;5.78;;
78181;SDS011;67441;50.116;8.696;2023-06-22T00:09:28;6.32;;;4.85;;
78181;SDS011;67441;50.116;8.696;2023-06-22T00:09:53;5.88;;;5.15;;
78181;SDS011;67441;50.116;8.696;2023-06-22T00:10:44;6.50;;;4.63;;
78181;SDS011;67441;50.116;8.696;2023-06-22T00:11:10;7.20;;;5.07;;
78181;SDS011;67441;50.116;8.696;2023-06-22T00:12:01;6.03;;;4.85;;
78181;SDS011;67441;50.116;8.696;2023-06-22T00:12:51;5.60;;;4.80;;
78181;SDS011;67441;50.116;8.696;2023-06-22T00:13:42;6.60;;;4.65;;
78181;SDS011;67441;50.116;8.696;2023-06-22T00:14:08;6.63;;;5.30;;
78181;SDS011;67441;50.116;8.696;2023-06-22T00:14:58;6.40;;;4.90;;
78181;SDS011;67441;50.116;8.696;2023-06-22T00:15:49;5.10;;;4.28;;
78181;SDS011;67441;50.116;8.696;2023-06-22T00:16:39;7.70;;;4.90;;
78181;SDS011;67441;50.116;8.696;2023-06-22T00:17:07;5.72;;;4.75;;
78181;SDS011;67441;50.116;8.696;2023-06-22T00:17:58;5.75;;;4.82;;
78181;SDS011;67441;50.116;8.696;2023-06-22T00:18:52;6.22;;;4.85;;
78181;SDS011;67441;50.116;8.696;2023-06-22T00:19:46;6.35;;;5.35;;
78181;SDS011;67441;50.116;8.696;2023-06-22T00:20:12;6.47;;;5.45;;
78181;SDS011;67441;50.116;8.696;2023-06-22T00:20:39;6.03;;;4.65;;
78181;SDS011;67441;50.116;8.696;2023-06-22T00:21:31;6.55;;;5.07;;
78181;SDS011;67441;50.116;8.696;2023-06-22T00:22:25;5.20;;;4.70;;
78181;SDS011;67441;50.116;8.696;2023-06-22T00:22:54;5.72;;;4.70;;
78181;SDS011;67441;50.116;8.696;2023-06-22T00:23:20;5.32;;;4.70;;
78181;SDS011;67441;50.116;8.696;2023-06-22T00:24:10;5.95;;;5.07;;
78181;SDS011;67441;50.116;8.696;2023-06-22T00:24:35;6.13;;;4.90;;
78181;SDS011;67441;50.116;8.696;2023-06-22T00:25:26;5.97;;;4.85;;
78181;SDS011;67441;50.116;8.696;2023-06-22T00:26:16;6.88;;;4.63;;
78181;SDS011;67441;50.116;8.696;2023-06-22T00:27:07;7.55;;;4.78;;
78181;SDS011;67441;50.116;8.696;2023-06-22T00:27:58;7.32;;;5.00;;
78181;SDS011;67441;50.116;8.696;2023-06-22T00:28:48;6.97;;;5.00;;
78181;SDS011;67441;50.116;8.696;2023-06-22T00:29:39;4.93;;;4.30;;
78181;SDS011;67441;50.116;8.696;2023-06-22T00:30:30;5.68;;;5.00;;
78181;SDS011;67441;50.116;8.696;2023-06-22T00:31:21;6.10;;;4.90;;
78181;SDS011;67441;50.116;8.696;2023-06-22T00:32:11;5.68;;;4.07;;
78181;SDS011;67441;50.116;8.696;2023-06-22T00:33:02;6.63;;;4.85;;
78181;SDS011;67441;50.116;8.696;2023-06-22T00:33:53;5.32;;;4.82;;
78181;SDS011;67441;50.116;8.696;2023-06-22T00:34:43;5.55;;;4.88;;
78181;SDS011;67441;50.116;8.696;2023-06-22T00:35:35;5.82;;;5.13;;
78181;SDS011;67441;50.116;8.696;2023-06-22T00:36:00;6.32;;;4.88;;
78181;SDS011;67441;50.116;8.696;2023-06-22T00:36:27;5.10;;;4.47;;
78181;SDS011;67441;50.116;8.696;2023-06-22T00:37:18;5.85;;;4.60;;
78181;SDS011;67441;50.116;8.696;2023-06-22T00:37:43;6.05;;;4.47;;
78181;SDS011;67441;50.116;8.696;2023-06-22T00:38:34;7.63;;;4.35;;
78181;SDS011;67441;50.116;8.696;2023-06-22T00:39:24;6.68;;;4.45;;
78181;SDS011;67441;50.116;8.696;2023-06-22T00:40:15;8.23;;;4.80;;
78181;SDS011;67441;50.116;8.696;2023-06-22T00:40:46;6.18;;;4.85;;
78181;SDS011;67441;50.116;8.696;2023-06-22T00:41:37;5.18;;;4.45;;
78181;SDS011;67441;50.116;8.696;2023-06-22T00:42:02;5.28;;;4.78;;
78181;SDS011;67441;50.116;8.696;2023-06-22T00:42:53;6.22;;;4.28;;
78181;SDS011;67441;50.116;8.696;2023-06-22T00:43:19;4.82;;;4.15;;
78181;SDS011;67441;50.116;8.696;2023-06-22T00:44:10;6.13;;;4.63;;
78181;SDS011;67441;50.116;8.696;2023-06-22T00:45:01;6.50;;;4.40;;
78181;SDS011;67441;50.116;8.696;2023-06-22T00:45:26;5.40;;;4.30;;
78181;SDS011;67441;50.116;8.696;2023-06-22T00:45:52;6.10;;;5.07;;
78181;SDS011;67441;50.116;8.696;2023-06-22T00:46:17;6.03;;;4.20;;
78181;SDS011;67441;50.116;8.696;2023-06-22T00:47:08;5.13;;;4.53;;
78181;SDS011;67441;50.116;8.696;2023-06-22T00:48:02;5.53;;;4.50;;
78181;SDS011;67441;50.116;8.696;2023-06-22T00:48:53;6.93;;;4.45;;
78181;SDS011;67441;50.116;8.696;2023-06-22T00:49:22;5.75;;;4.68;;
78181;SDS011;67441;50.116;8.696;2023-06-22T00:50:18;5.45;;;4.25;;
78181;SDS011;67441;50.116;8.696;2023-06-22T00:50:46;4.80;;;4.18;;
78181;SDS011;67441;50.116;8.696;2023-06-22T00:51:13;7.18;;;4.78;;
78181;SDS011;67441;50.116;8.696;2023-06-22T00:52:12;5.07;;;4.28;;
78181;SDS011;67441;50.116;8.696;2023-06-22T00:52:45;5.70;;;3.95;;
78181;SDS011;67441;50.116;8.696;2023-06-22T00:53:12;5.55;;;4.85;;
78181;SDS011;67441;50.116;8.696;2023-06-22T00:53:38;6.05;;;4.47;;
78181;SDS011;67441;50.116;8.696;2023-06-22T00:54:30;5.03;;;4.45;;
78181;SDS011;67441;50.116;8.696;2023-06-22T00:55:22;5.22;;;3.97;;
78181;SDS011;67441;50.116;8.696;2023-06-22T00:55:48;5.13;;;4.53;;
78181;SDS011;67441;50.116;8.696;2023-06-22T00:56:16;5.47;;;4.50;;
78181;SDS011;67441;50.116;8.696;2023-06-22T00:56:44;5.57;;;4.35;;
78181;SDS011;67441;50.116;8.696;2023-06-22T00:57:11;5.60;;;4.40;;
78181;SDS011;67441;50.116;8.696;2023-06-22T00:57:40;6.05;;;4.50;;
78181;SDS011;67441;50.116;8.696;2023-06-22T00:58:35;5.03;;;4.32;;
78181;SDS011;67441;50.116;8.696;2023-06-22T00:59:01;5.40;;;4.47;;
78181;SDS011;67441;50.116;8.696;2023-06-22T00:59:28;6.55;;;4.70;;
78181;SDS011;67441;50.116;8.696;2023-06-22T01:00:19;5.25;;;4.28;;
78181;SDS011;67441;50.116;8.696;2023-06-22T01:00:45;4.78;;;4.00;;
78181;SDS011;67441;50.116;8.696;2023-06-22T01:01:36;5.50;;;4.60;;
78181;SDS011;67441;50.116;8.696;2023-06-22T01:02:06;4.93;;;4.35;;
78181;SDS011;67441;50.116;8.696;2023-06-22T01:02:56;4.75;;;4.25;;
78181;SDS011;67441;50.116;8.696;2023-06-22T01:03:22;6.88;;;4.80;;
78181;SDS011;67441;50.116;8.696;2023-06-22T01:03:47;5.40;;;4.43;;
78181;SDS011;67441;50.116;8.696;2023-06-22T01:04:13;5.28;;;4.03;;
78181;SDS011;67441;50.116;8.696;2023-06-22T01:04:40;5.15;;;4.05;;
78181;SDS011;67441;50.116;8.696;2023-06-22T01:05:31;6.70;;;5.07;;
78181;SDS011;67441;50.116;8.696;2023-06-22T01:07:02;8.20;;;4.90;;
78181;SDS011;67441;50.116;8.696;2023-06-22T01:07:31;6.63;;;5.18;;
78181;SDS011;67441;50.116;8.696;2023-06-22T01:09:31;4.93;;;4.43;;
78181;SDS011;67441;50.116;8.696;2023-06-22T01:10:38;5.03;;;4.07;;
78181;SDS011;67441;50.116;8.696;2023-06-22T01:12:06;5.55;;;4.50;;
78181;SDS011;67441;50.116;8.696;2023-06-22T01:12:34;6.60;;;4.45;;
78181;SDS011;67441;50.116;8.696;2023-06-22T01:13:32;4.85;;;4.25;;
78181;SDS011;67441;50.116;8.696;2023-06-22T01:14:23;5.53;;;4.32;;
78181;SDS011;67441;50.116;8.696;2023-06-22T01:15:12;6.57;;;5.35;;
78181;SDS011;67441;50.116;8.696;2023-06-22T01:15:45;7.30;;;4.95;;
78181;SDS011;67441;50.116;8.696;2023-06-22T01:16:17;6.25;;;4.05;;
78181;SDS011;67441;50.116;8.696;2023-06-22T01:16:48;4.93;;;3.92;;
78181;SDS011;67441;50.116;8.696;2023-06-22T01:17:15;5.85;;;4.22;;
78181;SDS011;67441;50.116;8.696;2023-06-22T01:17:44;5.38;;;4.07;;
78181;SDS011;67441;50.116;8.696;2023-06-22T01:18:10;4.90;;;4.40;;
78181;SDS011;67441;50.116;8.696;2023-06-22T01:19:09;5.47;;;4.43;;
78181;SDS011;67441;50.116;8.696;2023-06-22T01:19:47;6.63;;;4.32;;
78181;SDS011;67441;50.116;8.696;2023-06-22T01:20:20;5.40;;;4.50;;
78181;SDS011;67441;50.116;8.696;2023-06-22T01:20:47;5.03;;;4.03;;
78181;SDS011;67441;50.116;8.696;2023-06-22T01:21:40;5.38;;;4.72;;
78181;SDS011;67441;50.116;8.696;2023-06-22T01:22:46;6.13;;;4.90;;
78181;SDS011;67441;50.116;8.696;2023-06-22T01:23:29;8.05;;;4.78;;
78181;SDS011;67441;50.116;8.696;2023-06-22T01:24:26;5.55;;;4.82;;
78181;SDS011;67441;50.116;8.696;2023-06-22T01:25:10;7.07;;;4.85;;
78181;SDS011;67441;50.116;8.696;2023-06-22T01:25:45;6.43;;;4.72;;
78181;SDS011;67441;50.116;8.696;2023-06-22T01:26:25;5.90;;;4.97;;
78181;SDS011;67441;50.116;8.696;2023-06-22T01:27:03;6.28;;;5.00;;
78181;SDS011;67441;50.116;8.696;2023-06-22T01:28:00;5.30;;;4.47;;
78181;SDS011;67441;50.116;8.696;2023-06-22T01:28:36;6.45;;;4.80;;
78181;SDS011;67441;50.116;8.696;2023-06-22T01:29:06;7.70;;;5.20;;
78181;SDS011;67441;50.116;8.696;2023-06-22T01:29:33;7.15;;;5.30;;
78181;SDS011;67441;50.116;8.696;2023-06-22T01:30:01;5.85;;;5.13;;
78181;SDS011;67441;50.116;8.696;2023-06-22T01:30:29;7.22;;;5.20;;
78181;SDS011;67441;50.116;8.696;2023-06-22T01:30:55;6.25;;;4.63;;
78181;SDS011;67441;50.116;8.696;2023-06-22T01:31:31;7.20;;;5.03;;
78181;SDS011;67441;50.116;8.696;2023-06-22T01:31:57;6.35;;;5.05;;
78181;SDS011;67441;50.116;8.696;2023-06-22T01:32:24;7.65;;;5.68;;
78181;SDS011;67441;50.116;8.696;2023-06-22T01:33:15;6.22;;;5.57;;
78181;SDS011;67441;50.116;8.696;2023-06-22T01:33:42;6.60;;;5.40;;
78181;SDS011;67441;50.116;8.696;2023-06-22T01:34:11;6.03;;;5.43;;
78181;SDS011;67441;50.116;8.696;2023-06-22T01:34:38;7.97;;;5.97;;
78181;SDS011;67441;50.116;8.696;2023-06-22T01:35:06;7.00;;;6.00;;
78181;SDS011;67441;50.116;8.696;2023-06-22T01:35:33;7.53;;;5.38;;
78181;SDS011;67441;50.116;8.696;2023-06-22T01:36:25;8.20;;;6.28;;
78181;SDS011;67441;50.116;8.696;2023-06-22T01:36:51;6.80;;;6.10;;
78181;SDS011;67441;50.116;8.696;2023-06-22T01:37:17;8.73;;;5.78;;
78181;SDS011;67441;50.116;8.696;2023-06-22T01:38:09;8.05;;;6.05;;
78181;SDS011;67441;50.116;8.696;2023-06-22T01:39:01;7.05;;;5.78;;
78181;SDS011;67441;50.116;8.696;2023-06-22T01:39:29;8.57;;;6.05;;
78181;SDS011;67441;50.116;8.696;2023-06-22T01:39:55;8.57;;;5.72;;
78181;SDS011;67441;50.116;8.696;2023-06-22T01:40:21;7.45;;;5.90;;
78181;SDS011;67441;50.116;8.696;2023-06-22T01:40:48;6.97;;;6.20;;
78181;SDS011;67441;50.116;8.696;2023-06-22T01:41:15;7.55;;;6.22;;
78181;SDS011;67441;50.116;8.696;2023-06-22T01:41:42;7.85;;;6.00;;
78181;SDS011;67441;50.116;8.696;2023-06-22T01:42:33;7.35;;;5.53;;
78181;SDS011;67441;50.116;8.696;2023-06-22T01:43:00;8.13;;;6.30;;
78181;SDS011;67441;50.116;8.696;2023-06-22T01:43:52;6.90;;;5.82;;
78181;SDS011;67441;50.116;8.696;2023-06-22T01:44:18;7.40;;;6.60;;
78181;SDS011;67441;50.116;8.696;2023-06-22T01:45:10;6.80;;;6.10;;
78181;SDS011;67441;50.116;8.696;2023-06-22T01:45:37;9.18;;;6.38;;
78181;SDS011;67441;50.116;8.696;2023-06-22T01:46:28;7.00;;;6.30;;
78181;SDS011;67441;50.116;8.696;2023-06-22T01:47:22;8.00;;;6.55;;
78181;SDS011;67441;50.116;8.696;2023-06-22T01:47:49;8.13;;;6.40;;
78181;SDS011;67441;50.116;8.696;2023-06-22T01:48:40;7.65;;;6.40;;
78181;SDS011;67441;50.116;8.696;2023-06-22T01:49:31;7.80;;;6.28;;
78181;SDS011;67441;50.116;8.696;2023-06-22T01:50:21;8.60;;;7.22;;
78181;SDS011;67441;50.116;8.696;2023-06-22T01:51:12;8.18;;;6.38;;
78181;SDS011;67441;50.116;8.696;2023-06-22T01:52:03;8.60;;;6.63;;
78181;SDS011;67441;50.116;8.696;2023-06-22T01:52:54;8.20;;;6.60;;
78181;SDS011;67441;50.116;8.696;2023-06-22T01:53:48;7.50;;;6.70;;
78181;SDS011;67441;50.116;8.696;2023-06-22T01:54:39;7.70;;;6.25;;
78181;SDS011;67441;50.116;8.696;2023-06-22T01:55:32;7.93;;;6.70;;
78181;SDS011;67441;50.116;8.696;2023-06-22T01:56:23;8.65;;;7.13;;
78181;SDS011;67441;50.116;8.696;2023-06-22T01:56:49;7.55;;;6.20;;
78181;SDS011;67441;50.116;8.696;2023-06-22T01:57:39;8.63;;;6.70;;
78181;SDS011;67441;50.116;8.696;2023-06-22T01:58:05;7.95;;;6.78;;
78181;SDS011;67441;50.116;8.696;2023-06-22T01:58:59;7.07;;;5.95;;
78181;SDS011;67441;50.116;8.696;2023-06-22T01:59:42;9.25;;;6.78;;
78181;SDS011;67441;50.116;8.696;2023-06-22T02:00:18;7.18;;;6.40;;
78181;SDS011;67441;50.116;8.696;2023-06-22T02:00:53;7.60;;;5.82;;
78181;SDS011;67441;50.116;8.696;2023-06-22T02:01:24;7.32;;;5.97;;
78181;SDS011;67441;50.116;8.696;2023-06-22T02:02:01;7.30;;;6.40;;
78181;SDS011;67441;50.116;8.696;2023-06-22T02:03:31;7.80;;;5.82;;
78181;SDS011;67441;50.116;8.696;2023-06-22T02:04:05;7.03;;;6.32;;
78181;SDS011;67441;50.116;8.696;2023-06-22T02:04:51;7.45;;;6.65;;
78181;SDS011;67441;50.116;8.696;2023-06-22T02:05:22;7.47;;;6.13;;
78181;SDS011;67441;50.116;8.696;2023-06-22T02:05:50;7.30;;;6.35;;
78181;SDS011;67441;50.116;8.696;2023-06-22T02:06:21;8.40;;;6.47;;
78181;SDS011;67441;50.116;8.696;2023-06-22T02:06:54;6.70;;;5.97;;
78181;SDS011;67441;50.116;8.696;2023-06-22T02:07:22;7.55;;;6.18;;
78181;SDS011;67441;50.116;8.696;2023-06-22T02:07:56;9.25;;;6.53;;
78181;SDS011;67441;50.116;8.696;2023-06-22T02:08:31;6.03;;;5.20;;
78181;SDS011;67441;50.116;8.696;2023-06-22T02:09:02;7.38;;;6.25;;
78181;SDS011;67441;50.116;8.696;2023-06-22T02:09:31;7.32;;;6.05;;
78181;SDS011;67441;50.116;8.696;2023-06-22T02:09:57;6.97;;;6.20;;
78181;SDS011;67441;50.116;8.696;2023-06-22T02:10:24;7.40;;;6.30;;
78181;SDS011;67441;50.116;8.696;2023-06-22T02:10:51;5.40;;;4.90;;
78181;SDS011;67441;50.116;8.696;2023-06-22T02:11:20;6.43;;;4.75;;
78181;SDS011;67441;50.116;8.696;2023-06-22T02:11:46;10.02;;;6.32;;
78181;SDS011;67441;50.116;8.696;2023-06-22T02:12:13;7.82;;;6.20;;
78181;SDS011;67441;50.116;8.696;2023-06-22T02:12:43;8.85;;;5.68;;
78181;SDS011;67441;50.116;8.696;2023-06-22T02:13:09;7.00;;;6.22;;
78181;SDS011;67441;50.116;8.696;2023-06-22T02:13:36;6.75;;;5.53;;
78181;SDS011;67441;50.116;8.696;2023-06-22T02:14:02;6.05;;;5.00;;
78181;SDS011;67441;50.116;8.696;2023-06-22T02:14:53;5.47;;;4.93;;
78181;SDS011;67441;50.116;8.696;2023-06-22T02:15:19;6.60;;;5.80;;
78181;SDS011;67441;50.116;8.696;2023-06-22T02:15:45;5.43;;;4.80;;
78181;SDS011;67441;50.116;8.696;2023-06-22T02:16:12;6.45;;;5.43;;
78181;SDS011;67441;50.116;8.696;2023-06-22T02:16:40;7.63;;;5.40;;
78181;SDS011;67441;50.116;8.696;2023-06-22T02:17:05;5.72;;;5.10;;
78181;SDS011;67441;50.116;8.696;2023-06-22T02:17:33;6.10;;;5.05;;
78181;SDS011;67441;50.116;8.696;2023-06-22T02:18:24;5.95;;;4.82;;
78181;SDS011;67441;50.116;8.696;2023-06-22T02:19:16;5.63;;;4.85;;
78181;SDS011;67441;50.116;8.696;2023-06-22T02:19:43;6.63;;;4.85;;
78181;SDS011;67441;50.116;8.696;2023-06-22T02:20:43;6.28;;;5.13;;
78181;SDS011;67441;50.116;8.696;2023-06-22T02:21:33;6.22;;;5.43;;
78181;SDS011;67441;50.116;8.696;2023-06-22T02:22:24;6.68;;;4.68;;
78181;SDS011;67441;50.116;8.696;2023-06-22T02:23:15;5.85;;;5.25;;
78181;SDS011;67441;50.116;8.696;2023-06-22T02:23:40;7.50;;;5.63;;
78181;SDS011;67441;50.116;8.696;2023-06-22T02:24:30;7.53;;;5.75;;
78181;SDS011;67441;50.116;8.696;2023-06-22T02:24:57;8.60;;;5.78;;
78181;SDS011;67441;50.116;8.696;2023-06-22T02:25:47;6.88;;;5.53;;
78181;SDS011;67441;50.116;8.696;2023-06-22T02:26:38;7.05;;;6.20;;
78181;SDS011;67441;50.116;8.696;2023-06-22T02:27:04;7.90;;;5.75;;
78181;SDS011;67441;50.116;8.696;2023-06-22T02:27:32;7.97;;;5.45;;
78181;SDS011;67441;50.116;8.696;2023-06-22T02:28:22;6.22;;;5.43;;
78181;SDS011;67441;50.116;8.696;2023-06-22T02:29:12;6.20;;;5.60;;
78181;SDS011;67441;50.116;8.696;2023-06-22T02:30:03;7.53;;;6.30;;
78181;SDS011;67441;50.116;8.696;2023-06-22T02:30:54;6.75;;;5.88;;
78181;SDS011;67441;50.116;8.696;2023-06-22T02:31:45;6.95;;;6.25;;
78181;SDS011;67441;50.116;8.696;2023-06-22T02:32:36;7.13;;;5.65;;
78181;SDS011;67441;50.116;8.696;2023-06-22T02:33:01;9.63;;;6.13;;
78181;SDS011;67441;50.116;8.696;2023-06-22T02:33:52;7.30;;;6.15;;
78181;SDS011;67441;50.116;8.696;2023-06-22T02:34:18;6.28;;;5.18;;
78181;SDS011;67441;50.116;8.696;2023-06-22T02:35:12;6.82;;;5.75;;
78181;SDS011;67441;50.116;8.696;2023-06-22T02:36:04;7.93;;;5.70;;
78181;SDS011;67441;50.116;8.696;2023-06-22T02:36:55;7.20;;;5.43;;
78181;SDS011;67441;50.116;8.696;2023-06-22T02:37:20;7.68;;;5.13;;
78181;SDS011;67441;50.116;8.696;2023-06-22T02:37:46;7.40;;;6.22;;
78181;SDS011;67441;50.116;8.696;2023-06-22T02:38:11;7.85;;;6.45;;
78181;SDS011;67441;50.116;8.696;2023-06-22T02:39:02;7.70;;;6.22;;
78181;SDS011;67441;50.116;8.696;2023-06-22T02:39:28;6.80;;;6.10;;
78181;SDS011;67441;50.116;8.696;2023-06-22T02:40:19;7.93;;;5.70;;
78181;SDS011;67441;50.116;8.696;2023-06-22T02:41:09;6.53;;;5.82;;
78181;SDS011;67441;50.116;8.696;2023-06-22T02:41:38;8.02;;;6.57;;
78181;SDS011;67441;50.116;8.696;2023-06-22T02:42:28;7.80;;;6.53;;
78181;SDS011;67441;50.116;8.696;2023-06-22T02:42:54;7.60;;;6.30;;
78181;SDS011;67441;50.116;8.696;2023-06-22T02:43:19;7.53;;;6.35;;
78181;SDS011;67441;50.116;8.696;2023-06-22T02:44:10;8.27;;;6.03;;
78181;SDS011;67441;50.116;8.696;2023-06-22T02:45:01;7.30;;;5.57;;
78181;SDS011;67441;50.116;8.696;2023-06-22T02:45:52;8.73;;;6.30;;
78181;SDS011;67441;50.116;8.696;2023-06-22T02:46:17;6.57;;;5.95;;
78181;SDS011;67441;50.116;8.696;2023-06-22T02:47:08;9.55;;;6.55;;
78181;SDS011;67441;50.116;8.696;2023-06-22T02:47:59;8.10;;;6.07;;
78181;SDS011;67441;50.116;8.696;2023-06-22T02:48:49;7.53;;;5.85;;
78181;SDS011;67441;50.116;8.696;2023-06-22T02:49:40;6.47;;;5.70;;
78181;SDS011;67441;50.116;8.696;2023-06-22T02:50:05;7.43;;;6.00;;
78181;SDS011;67441;50.116;8.696;2023-06-22T02:50:56;7.63;;;6.35;;
78181;SDS011;67441;50.116;8.696;2023-06-22T02:51:48;7.32;;;5.50;;
78181;SDS011;67441;50.116;8.696;2023-06-22T02:52:38;8.68;;;6.85;;
78181;SDS011;67441;50.116;8.696;2023-06-22T02:53:29;7.55;;;6.22;;
78181;SDS011;67441;50.116;8.696;2023-06-22T02:54:22;8.25;;;5.75;;
78181;SDS011;67441;50.116;8.696;2023-06-22T02:55:12;7.55;;;5.93;;
78181;SDS011;67441;50.116;8.696;2023-06-22T02:56:04;6.53;;;5.25;;
78181;SDS011;67441;50.116;8.696;2023-06-22T02:56:55;6.32;;;5.47;;
78181;SDS011;67441;50.116;8.696;2023-06-22T02:57:46;5.72;;;5.18;;
78181;SDS011;67441;50.116;8.696;2023-06-22T02:58:12;6.43;;;5.30;;
78181;SDS011;67441;50.116;8.696;2023-06-22T02:59:04;6.28;;;4.80;;
78181;SDS011;67441;50.116;8.696;2023-06-22T02:59:54;5.82;;;5.05;;
78181;SDS011;67441;50.116;8.696;2023-06-22T03:00:46;6.78;;;6.03;;
78181;SDS011;67441;50.116;8.696;2023-06-22T03:01:38;7.13;;;6.38;;
78181;SDS011;67441;50.116;8.696;2023-06-22T03:02:06;7.93;;;6.43;;
78181;SDS011;67441;50.116;8.696;2023-06-22T03:02:58;6.32;;;5.72;;
78181;SDS011;67441;50.116;8.696;2023-06-22T03:03:51;7.30;;;5.20;;
78181;SDS011;67441;50.116;8.696;2023-06-22T03:04:41;7.68;;;6.15;;
78181;SDS011;67441;50.116;8.696;2023-06-22T03:05:08;8.98;;;6.55;;
78181;SDS011;67441;50.116;8.696;2023-06-22T03:05:38;6.90;;;6.20;;
78181;SDS011;67441;50.116;8.696;2023-06-22T03:06:05;6.57;;;5.80;;
78181;SDS011;67441;50.116;8.696;2023-06-22T03:06:56;7.68;;;6.03;;
78181;SDS011;67441;50.116;8.696;2023-06-22T03:07:46;6.63;;;5.93;;
78181;SDS011;67441;50.116;8.696;2023-06-22T03:08:37;7.05;;;6.05;;
78181;SDS011;67441;50.116;8.696;2023-06-22T03:09:29;8.77;;;6.10;;
78181;SDS011;67441;50.116;8.696;2023-06-22T03:10:20;6.35;;;5.38;;
78181;SDS011;67441;50.116;8.696;2023-06-22T03:10:46;8.13;;;6.45;;
78181;SDS011;67441;50.116;8.696;2023-06-22T03:11:36;7.57;;;5.80;;
78181;SDS011;67441;50.116;8.696;2023-06-22T03:12:27;6.93;;;5.60;;
78181;SDS011;67441;50.116;8.696;2023-06-22T03:13:17;7.88;;;6.38;;
78181;SDS011;67441;50.116;8.696;2023-06-22T03:13:43;9.05;;;5.93;;
78181;SDS011;67441;50.116;8.696;2023-06-22T03:14:33;7.28;;;5.68;;
78181;SDS011;67441;50.116;8.696;2023-06-22T03:15:24;6.88;;;5.97;;
78181;SDS011;67441;50.116;8.696;2023-06-22T03:15:50;6.38;;;5.25;;
78181;SDS011;67441;50.116;8.696;2023-06-22T03:16:41;7.55;;;5.53;;
78181;SDS011;67441;50.116;8.696;2023-06-22T03:17:31;8.32;;;5.90;;
78181;SDS011;67441;50.116;8.696;2023-06-22T03:18:21;6.55;;;5.60;;
78181;SDS011;67441;50.116;8.696;2023-06-22T03:19:12;7.28;;;5.43;;
78181;SDS011;67441;50.116;8.696;2023-06-22T03:19:38;5.95;;;5.25;;
78181;SDS011;67441;50.116;8.696;2023-06-22T03:20:36;7.70;;;6.47;;
78181;SDS011;67441;50.116;8.696;2023-06-22T03:21:28;7.72;;;5.60;;
78181;SDS011;67441;50.116;8.696;2023-06-22T03:21:53;7.63;;;6.35;;
78181;SDS011;67441;50.116;8.696;2023-06-22T03:22:44;6.47;;;5.50;;
78181;SDS011;67441;50.116;8.696;2023-06-22T03:23:34;6.93;;;5.93;;
78181;SDS011;67441;50.116;8.696;2023-06-22T03:24:25;6.82;;;5.65;;
78181;SDS011;67441;50.116;8.696;2023-06-22T03:25:15;7.15;;;5.47;;
78181;SDS011;67441;50.116;8.696;2023-06-22T03:26:08;7.47;;;6.40;;
78181;SDS011;67441;50.116;8.696;2023-06-22T03:26:34;9.50;;;6.13;;
78181;SDS011;67441;50.116;8.696;2023-06-22T03:27:25;7.75;;;6.75;;
78181;SDS011;67441;50.116;8.696;2023-06-22T03:28:15;5.95;;;5.20;;
78181;SDS011;67441;50.116;8.696;2023-06-22T03:29:06;9.27;;;6.50;;
78181;SDS011;67441;50.116;8.696;2023-06-22T03:29:57;8.52;;;5.85;;
78181;SDS011;67441;50.116;8.696;2023-06-22T03:30:47;7.55;;;6.32;;
78181;SDS011;67441;50.116;8.696;2023-06-22T03:31:38;8.30;;;7.05;;
78181;SDS011;67441;50.116;8.696;2023-06-22T03:32:30;8.80;;;7.75;;
78181;SDS011;67441;50.116;8.696;2023-06-22T03:33:21;7.07;;;6.35;;
78181;SDS011;67441;50.116;8.696;2023-06-22T03:34:13;8.98;;;7.35;;
78181;SDS011;67441;50.116;8.696;2023-06-22T03:35:04;9.43;;;7.43;;
78181;SDS011;67441;50.116;8.696;2023-06-22T03:35:31;9.05;;;6.85;;
78181;SDS011;67441;50.116;8.696;2023-06-22T03:36:21;9.32;;;7.15;;
78181;SDS011;67441;50.116;8.696;2023-06-22T03:36:49;9.35;;;7.32;;
78181;SDS011;67441;50.116;8.696;2023-06-22T03:37:40;9.30;;;7.57;;
78181;SDS011;67441;50.116;8.696;2023-06-22T03:38:31;8.85;;;7.65;;
78181;SDS011;67441;50.116;8.696;2023-06-22T03:39:21;9.65;;;7.32;;
78181;SDS011;67441;50.116;8.696;2023-06-22T03:39:47;9.15;;;7.65;;
78181;SDS011;67441;50.116;8.696;2023-06-22T03:40:37;9.50;;;7.82;;
78181;SDS011;67441;50.116;8.696;2023-06-22T03:41:02;10.23;;;7.78;;
78181;SDS011;67441;50.116;8.696;2023-06-22T03:41:53;9.52;;;7.53;;
78181;SDS011;67441;50.116;8.696;2023-06-22T03:42:43;7.32;;;6.63;;
78181;SDS011;67441;50.116;8.696;2023-06-22T03:43:34;9.23;;;7.60;;
78181;SDS011;67441;50.116;8.696;2023-06-22T03:43:59;8.50;;;7.57;;
78181;SDS011;67441;50.116;8.696;2023-06-22T03:44:50;8.43;;;7.25;;
78181;SDS011;67441;50.116;8.696;2023-06-22T03:45:15;9.00;;;7.65;;
78181;SDS011;67441;50.116;8.696;2023-06-22T03:46:05;8.38;;;7.50;;
78181;SDS011;67441;50.116;8.696;2023-06-22T03:46:56;8.82;;;7.55;;
78181;SDS011;67441;50.116;8.696;2023-06-22T03:47:47;8.93;;;8.07;;
78181;SDS011;67441;50.116;8.696;2023-06-22T03:48:37;8.35;;;7.20;;
78181;SDS011;67441;50.116;8.696;2023-06-22T03:49:28;8.88;;;7.80;;
78181;SDS011;67441;50.116;8.696;2023-06-22T03:50:19;8.70;;;7.80;;
78181;SDS011;67441;50.116;8.696;2023-06-22T03:51:10;8.98;;;7.90;;
78181;SDS011;67441;50.116;8.696;2023-06-22T03:52:01;9.98;;;7.75;;
78181;SDS011;67441;50.116;8.696;2023-06-22T03:52:27;8.60;;;7.20;;
78181;SDS011;67441;50.116;8.696;2023-06-22T03:53:18;9.77;;;8.18;;
78181;SDS011;67441;50.116;8.696;2023-06-22T03:54:08;8.00;;;7.20;;
78181;SDS011;67441;50.116;8.696;2023-06-22T03:54:59;9.20;;;7.88;;
78181;SDS011;67441;50.116;8.696;2023-06-22T03:55:50;9.95;;;7.85;;
78181;SDS011;67441;50.116;8.696;2023-06-22T03:56:16;7.88;;;6.80;;
78181;SDS011;67441;50.116;8.696;2023-06-22T03:56:45;9.23;;;7.70;;
78181;SDS011;67441;50.116;8.696;2023-06-22T03:57:36;8.18;;;7.25;;
78181;SDS011;67441;50.116;8.696;2023-06-22T03:58:30;9.68;;;8.30;;
78181;SDS011;67441;50.116;8.696;2023-06-22T03:58:57;10.02;;;7.80;;
78181;SDS011;67441;50.116;8.696;2023-06-22T03:59:48;8.68;;;7.65;;
78181;SDS011;67441;50.116;8.696;2023-06-22T04:00:40;10.45;;;8.70;;
78181;SDS011;67441;50.116;8.696;2023-06-22T04:01:31;10.40;;;8.13;;
78181;SDS011;67441;50.116;8.696;2023-06-22T04:02:21;8.73;;;7.65;;
78181;SDS011;67441;50.116;8.696;2023-06-22T04:03:12;9.20;;;8.20;;
78181;SDS011;67441;50.116;8.696;2023-06-22T04:03:38;9.85;;;8.07;;
78181;SDS011;67441;50.116;8.696;2023-06-22T04:04:29;9.10;;;8.15;;
78181;SDS011;67441;50.116;8.696;2023-06-22T04:05:19;10.95;;;8.50;;
78181;SDS011;67441;50.116;8.696;2023-06-22T04:06:10;10.40;;;8.13;;
78181;SDS011;67441;50.116;8.696;2023-06-22T04:07:01;10.35;;;7.97;;
78181;SDS011;67441;50.116;8.696;2023-06-22T04:07:51;10.13;;;8.50;;
78181;SDS011;67441;50.116;8.696;2023-06-22T04:08:41;10.10;;;8.32;;
78181;SDS011;67441;50.116;8.696;2023-06-22T04:09:32;10.02;;;7.88;;
78181;SDS011;67441;50.116;8.696;2023-06-22T04:10:00;10.35;;;8.10;;
78181;SDS011;67441;50.116;8.696;2023-06-22T04:10:51;8.70;;;7.78;;
78181;SDS011;67441;50.116;8.696;2023-06-22T04:11:42;9.02;;;7.78;;
78181;SDS011;67441;50.116;8.696;2023-06-22T04:12:33;10.25;;;8.38;;
78181;SDS011;67441;50.116;8.696;2023-06-22T04:13:24;10.10;;;8.57;;